Valley Peak, Santa Cruz Island Reserve, California Weather observations

Data are for 10 minute period ending at time listed.
 Day   Time   Solar   Ave.   Ave.  Ave.  Vector  Max.   Baro.   Total    
  of    of     Rad.   Air    Rel.  Wind   Wind   Wind  Press.  Precip.   
Year   Day            Temp.  Hum.  Speed  Dir.   Gust                    
2017   (PST)  Kw/m2    F      %     mph   deg.    mph    mb.     in.     
-------------------------------------------------------------------------
  54    9:10   0.47   45.0    46   12.0   321    24.7   969.3    0.00 
  54    9:20   0.50   45.1    47   13.7   332    27.1   969.2    0.00 
  54    9:30   0.53   45.1    47   15.8   334    29.8   969.2    0.00 
  54    9:40   0.56   45.8    40   17.1   336    32.7   969.2    0.00 
  54    9:50   0.58   46.3    36   15.1   330    32.1   969.3    0.00 
  54   10:00   0.61   46.4    37   16.1   330    27.5   969.4    0.00 
  54   10:10   0.63   46.3    40   15.8   334    29.1   969.2    0.00 
  54   10:20   0.65   46.7    42   14.3   335    27.0   969.3    0.00 
  54   10:30   0.67   46.7    44   11.4   339    23.0   969.3    0.00 
  54   10:40   0.69   47.1    42   13.4   335    26.8   969.3    0.00 
  54   10:50   0.70   47.0    43   15.6   340    29.4   969.3    0.00 
  54   11:00   0.72   47.2    43   13.6   340    25.6   969.2    0.00 
  54   11:10   0.73   47.7    41   13.9   345    26.1   969.1    0.00 
  54   11:20   0.74   47.3    41   16.8   335    30.2   969.1    0.00 
  54   11:30   0.75   47.6    43   14.7   329    27.0   969.1    0.00 
  54   11:40   0.76   47.2    45   19.0   319    30.8   969.0    0.00 
  54   11:50   0.76   47.5    47   16.7   326    25.8   968.7    0.00 
  54   12:00   0.76   47.4    47   19.8   317    34.5   968.7    0.00 
  54   12:10   0.77   47.9    46   18.4   317    28.4   968.7    0.00 
  54   12:20   0.77   47.9    46   19.3   316    31.6   968.5    0.00 
  54   12:30   0.76   48.0    47   18.2   318    31.1   968.5    0.00 
  54   12:40   0.76   48.4    45   18.4   316    35.7   968.4    0.00 
  54   12:50   0.76   48.2    45   20.1   311    31.9   968.3    0.00 
  54   13:00   0.75   48.8    44   17.9   313    31.8   968.2    0.00 
  54   13:10   0.74   48.7    44   19.0   310    37.8   968.0    0.00 
  54   13:20   0.73   48.9    44   18.8   316    32.2   968.0    0.00 
  54   13:30   0.72   48.9    43   20.5   310    35.0   967.8    0.00 
  54   13:40   0.70   49.1    43   21.5   312    33.6   967.6    0.00 
  54   13:50   0.69   48.8    44   20.9   311    34.0   967.6    0.00 
  54   14:00   0.67   49.1    44   20.2   308    34.6   967.5    0.00 
  54   14:10   0.65   49.7    44   18.0   312    28.2   967.4    0.00 
  54   14:20   0.63   49.7    43   18.6   314    31.4   967.5    0.00 
  54   14:30   0.60   49.7    45   17.8   308    35.0   967.4    0.00 
  54   14:40   0.58   49.5    48   20.3   312    38.2   967.3    0.00 
  54   14:50   0.56   49.4    47   19.6   319    34.0   967.3    0.00 
  54   15:00   0.53   49.1    48   21.6   311    38.8   967.2    0.00 
  54   15:10   0.50   49.1    48   24.2   312    39.8   967.1    0.00 
  54   15:20   0.47   49.4    49   20.5   310    33.8   967.1    0.00 
  54   15:30   0.44   49.2    50   21.6   308    34.0   967.1    0.00 
  54   15:40   0.41   49.2    51   19.3   308    31.0   967.2    0.00 
  54   15:50   0.37   49.1    50   17.7   309    30.6   967.3    0.00 
  54   16:00   0.34   49.4    52   16.2   302    24.5   967.3    0.00 
  54   16:10   0.30   48.9    53   18.6   310    35.8   967.3    0.00 
  54   16:20   0.27   48.8    55   16.7   306    30.2   967.3    0.00 
  54   16:30   0.23   48.5    55   19.2   307    31.1   967.2    0.00 
  54   16:40   0.20   48.2    58   18.0   303    30.3   967.3    0.00 
  54   16:50   0.17   47.8    60   17.6   303    31.0   967.3    0.00 
  54   17:00   0.13   47.7    62   17.3   299    29.2   967.3    0.00 
  54   17:10   0.10   47.2    63   18.2   299    29.1   967.4    0.00 
  54   17:20   0.07   46.9    63   15.4   295    26.3   967.4    0.00 
  54   17:30   0.04   46.4    65   15.2   289    26.1   967.5    0.00 
  54   17:40   0.02   45.8    67   16.1   293    28.1   967.5    0.00 
  54   17:50   0.00   45.2    68   12.7   293    22.5   967.6    0.00 
  54   18:00   0.00   44.7    72   13.1   289    22.1   967.8    0.00 
  54   18:10   0.00   44.5    74   17.7   295    30.5   967.9    0.00 
  54   18:20   0.00   44.3    75   14.2   298    23.3   968.1    0.00 
  54   18:30   0.00   44.2    75   17.7   301    30.0   968.1    0.00 
  54   18:40   0.00   44.3    75   20.1   308    36.3   968.1    0.00 
  54   18:50   0.00   44.3    74   23.1   311    36.7   968.0    0.00 
  54   19:00   0.00   44.2    75   20.4   306    31.0   968.2    0.00 
  54   19:10   0.00   44.1    76   19.8   309    32.5   968.2    0.00 
  54   19:20   0.00   44.0    74   18.8   309    32.7   968.2    0.00 
  54   19:30   0.00   43.9    74   16.6   309    26.7   968.4    0.00 
  54   19:40   0.00   43.8    74   16.7   304    34.0   968.5    0.00 
  54   19:50   0.00   43.7    74   17.0   310    30.8   968.4    0.00 
  54   20:00   0.00   43.6    75   15.3   307    26.0   968.5    0.00 
  54   20:10   0.00   43.6    75   15.2   316    26.2   968.7    0.00 
  54   20:20   0.00   43.7    74   13.6   317    22.6   968.8    0.00 
  54   20:30   0.00   43.6    74   12.3   324    21.1   968.9    0.00 
  54   20:40   0.00   43.6    73   14.4   329    28.4   968.9    0.00 
  54   20:50   0.00   43.7    74   17.1   321    25.9   969.0    0.00 
  54   21:00   0.00   43.6    73   16.1   326    24.6   968.9    0.00 
  54   21:10   0.00   43.6    74   16.5   325    29.4   968.7    0.00 
  54   21:20   0.00   43.6    73   16.1   319    26.9   968.7    0.00 
  54   21:30   0.00   43.6    71   12.9   317    24.6   968.8    0.00 
  54   21:40   0.00   43.7    70   12.2   334    19.8   969.1    0.00 
  54   21:50   0.00   43.9    69   10.5   342    18.1   969.3    0.00 
  54   22:00   0.00   43.7    71   13.2   332    22.1   969.2    0.00 
  54   22:10   0.00   43.9    69   17.9   320    26.0   969.0    0.00 
  54   22:20   0.00   43.8    70   20.7   319    30.2   968.7    0.00 
  54   22:30   0.00   43.8    71   18.8   323    28.4   968.6    0.00 
  54   22:40   0.00   43.6    72   12.6   333    23.5   968.9    0.00 
  54   22:50   0.00   43.6    72   11.4   346    22.2   969.1    0.00 
  54   23:00   0.00   43.7    70   11.4   353    27.1   969.2    0.00 
  54   23:10   0.00   43.8    68   15.1     6    25.5   969.1    0.00 
  54   23:20   0.00   43.7    67   16.9   348    27.0   968.9    0.00 
  54   23:30   0.00   43.7    68   18.5   345    30.0   968.7    0.00 
  54   23:40   0.00   43.5    68   17.4   347    27.0   968.6    0.00 
  54   23:50   0.00   43.6    68   17.2   351    28.1   968.7    0.00 
  55    0:00   0.00   43.5    67   12.1     7    25.3   968.9    0.00 
  55    0:10   0.00   43.5    65   11.3   356    20.6   969.1    0.00 
  55    0:20   0.00   43.5    66   11.1   357    21.0   969.3    0.00 
  55    0:30   0.00   43.3    66   14.2   346    23.8   969.3    0.00 
  55    0:40   0.00   43.1    68   13.4   348    21.1   969.3    0.00 
  55    0:50   0.00   42.9    68   13.3   344    20.3   969.3    0.00 
  55    1:00   0.00   42.8    69   13.8   339    21.5   969.2    0.00 
  55    1:10   0.00   42.9    69   14.3   326    22.6   969.4    0.00 
  55    1:20   0.00   42.8    69   13.2   324    21.3   969.6    0.00 
  55    1:30   0.00   42.9    68   12.9   309    18.0   969.8    0.00 
  55    1:40   0.00   42.7    67   10.4   302    16.5   969.8    0.00 
  55    1:50   0.00   42.2    67    8.4   301    12.6   969.7    0.00 
  55    2:00   0.00   42.0    67   10.5   296    14.2   969.6    0.00 
  55    2:10   0.00   42.0    67   10.6   318    17.7   969.4    0.00 
  55    2:20   0.00   42.2    67    9.8   329    16.2   969.3    0.00 
  55    2:30   0.00   41.9    69   10.3   335    17.0   969.2    0.00 
  55    2:40   0.00   42.1    67   10.5   326    15.4   969.3    0.00 
  55    2:50   0.00   42.0    66    9.2   324    14.7   969.4    0.00 
  55    3:00   0.00   41.9    64    9.1   305    14.6   969.5    0.00 
  55    3:10   0.00   41.9    66    8.3   317    13.7   969.4    0.00 
  55    3:20   0.00   41.9    68    8.7   333    13.9   969.2    0.00 
  55    3:30   0.00   41.7    70    9.5   335    14.7   969.0    0.00 
  55    3:40   0.00   41.5    71   10.9   354    16.7   968.8    0.00 
  55    3:50   0.00   41.5    71   12.7   348    18.9   968.7    0.00 
  55    4:00   0.00   41.7    72   13.6   349    20.8   968.7    0.00 
  55    4:10   0.00   41.7    73   12.9   345    19.9   968.8    0.00 
  55    4:20   0.00   41.7    74   11.9   350    19.0   968.7    0.00 
  55    4:30   0.00   41.4    74   10.8   347    18.5   968.8    0.00 
  55    4:40   0.00   41.6    73    9.9   343    17.1   968.9    0.00 
  55    4:50   0.00   41.6    72    9.1   335    14.0   969.1    0.00 
  55    5:00   0.00   41.3    71    8.5   323    13.5   969.2    0.00 
  55    5:10   0.00   41.6    71   10.2   322    14.8   969.2    0.00 
  55    5:20   0.00   41.8    68   10.2   325    15.1   969.2    0.00 
  55    5:30   0.00   41.7    68    8.9   337    12.3   969.3    0.00 
  55    5:40   0.00   41.8    67    8.6   333    12.3   969.4    0.00 
  55    5:50   0.00   41.7    68    7.3   332     9.7   969.5    0.00 
  55    6:00   0.00   41.4    69    4.7   290     7.8   969.6    0.00 
  55    6:10   0.00   41.3    68    5.3   304     8.3   969.7    0.00 
  55    6:20   0.00   42.1    63    5.6   330     8.2   969.8    0.00 
  55    6:30   0.00   42.9    60    8.5   350    10.0   969.8    0.00 
  55    6:40   0.00   43.1    59    9.0   352    10.1   969.9    0.00 
  55    6:50   0.02   43.3    58    8.2   345     9.3   970.1    0.00 
  55    7:00   0.04   43.3    59    6.3    22     7.5   970.2    0.00 
  55    7:10   0.07   43.3    59    6.4    27     7.8   970.5    0.00 
  55    7:20   0.11   43.9    58    4.6    24     6.9   970.6    0.00 
  55    7:30   0.12   44.4    56    2.2     1     4.7   970.9    0.00 
  55    7:40   0.09   44.3    55    2.6   352     3.8   971.0    0.00 
  55    7:50   0.15   44.2    55    3.9   334     6.2   971.1    0.00 
  55    8:00   0.18   44.8    54    3.1   346     5.8   971.3    0.00 
  55    8:10   0.20   45.2    54    2.0     5     4.0   971.4    0.00 
  55    8:20   0.24   45.9    57    3.7    53     5.2   971.4    0.00 
  55    8:30   0.29   47.3    58    4.3    52     5.6   971.5    0.00 
  55    8:40   0.37   48.5    57    2.6    68     4.8   971.7    0.00 
  55    8:50   0.41   48.9    56    4.0    53     6.3   971.7    0.00 
  55    9:00   0.46   49.6    54    3.0    47     6.4   971.8    0.00 

Return to Valley Peak, Santa Cruz Island Reserve graphs page.


Western Regional Climate Center,wrcc@dri.edu